createdAt,value
2019-03-25T00:00:30.436Z,77.07
2019-03-25T00:02:58.098Z,76.72
2019-03-25T00:05:25.783Z,76.31
2019-03-25T00:07:53.475Z,76.46
2019-03-25T00:10:21.419Z,76.30
2019-03-25T00:12:49.131Z,76.47
2019-03-25T00:15:16.787Z,75.76
2019-03-25T00:17:44.447Z,75.54
2019-03-25T00:20:12.391Z,75.20
2019-03-25T00:22:40.091Z,75.63
2019-03-25T00:25:07.895Z,75.90
2019-03-25T00:27:35.559Z,75.00
2019-03-25T00:30:03.217Z,74.98
2019-03-25T00:32:30.875Z,74.95
2019-03-25T00:34:58.535Z,74.45
2019-03-25T00:37:26.204Z,74.28
2019-03-25T00:39:54.109Z,73.35
2019-03-25T00:42:21.867Z,73.50
2019-03-25T00:44:49.574Z,73.09
2019-03-25T00:47:17.240Z,73.48
2019-03-25T00:49:45.008Z,73.56
2019-03-25T00:52:12.680Z,72.68
2019-03-25T00:54:49.523Z,72.85
2019-03-25T00:57:10.586Z,72.80
2019-03-25T00:59:38.399Z,72.84
2019-03-25T01:02:06.122Z,71.87
2019-03-25T01:04:33.783Z,71.61
2019-03-25T01:07:01.444Z,70.25
2019-03-25T01:09:29.104Z,70.07
2019-03-25T01:11:56.754Z,69.44
2019-03-25T01:14:24.407Z,69.05
2019-03-25T01:16:52.066Z,68.45
2019-03-25T01:19:19.726Z,68.23
2019-03-25T01:21:47.390Z,67.76
2019-03-25T01:24:15.034Z,68.15
2019-03-25T01:26:42.790Z,67.66
2019-03-25T01:29:10.458Z,66.96
2019-03-25T01:31:38.114Z,67.15
2019-03-25T01:34:05.842Z,66.88
2019-03-25T01:36:33.503Z,66.38
2019-03-25T01:39:01.147Z,66.39
2019-03-25T01:41:28.821Z,66.37
2019-03-25T01:43:56.472Z,64.96
2019-03-25T01:46:24.127Z,65.40
2019-03-25T01:48:51.770Z,65.50
2019-03-25T01:51:19.486Z,65.53
2019-03-25T01:53:47.458Z,65.98
2019-03-25T01:56:15.103Z,66.42
2019-03-25T01:58:42.759Z,65.36
2019-03-25T02:01:10.404Z,65.84
2019-03-25T02:03:38.067Z,65.59
2019-03-25T02:06:05.768Z,65.79
2019-03-25T02:08:33.420Z,65.25
2019-03-25T02:11:01.432Z,65.35
2019-03-25T02:13:29.245Z,65.53
2019-03-25T02:15:56.894Z,64.60
2019-03-25T02:18:24.552Z,65.31
2019-03-25T02:20:52.232Z,65.90
2019-03-25T02:23:19.939Z,65.33
2019-03-25T02:25:47.691Z,65.94
2019-03-25T02:28:15.432Z,66.48
2019-03-25T02:30:43.084Z,66.38
2019-03-25T02:33:10.740Z,66.82
2019-03-25T02:35:38.395Z,67.61
2019-03-25T02:38:06.075Z,67.85
2019-03-25T02:40:34.137Z,67.62
2019-03-25T02:43:01.876Z,67.70
2019-03-25T02:45:29.527Z,68.43
2019-03-25T02:47:57.281Z,68.97
2019-03-25T02:50:25.108Z,68.48
2019-03-25T02:52:52.819Z,68.63
2019-03-25T02:55:20.658Z,69.29
2019-03-25T02:57:48.307Z,69.29
2019-03-25T03:00:16.160Z,69.48
2019-03-25T03:02:43.808Z,69.23
2019-03-25T03:05:11.468Z,69.57
2019-03-25T03:07:39.192Z,69.80
2019-03-25T03:10:06.907Z,69.65
2019-03-25T03:12:34.546Z,69.54
2019-03-25T03:15:02.202Z,69.84
2019-03-25T03:17:29.860Z,70.11
2019-03-25T03:19:57.641Z,70.41
2019-03-25T03:22:25.447Z,70.70
2019-03-25T03:24:53.150Z,70.93
2019-03-25T03:27:21.151Z,71.24
2019-03-25T03:29:48.813Z,71.83
2019-03-25T03:32:16.475Z,71.64
2019-03-25T03:34:44.152Z,71.19
2019-03-25T03:37:11.863Z,71.51
2019-03-25T03:39:39.534Z,72.04
2019-03-25T03:42:07.224Z,72.01
2019-03-25T03:44:34.977Z,72.00
2019-03-25T03:47:02.631Z,72.08
2019-03-25T03:49:30.285Z,71.32
2019-03-25T03:51:57.940Z,70.73
2019-03-25T03:54:25.604Z,69.94
2019-03-25T03:56:53.333Z,69.42
2019-03-25T03:59:20.988Z,68.16
2019-03-25T04:01:48.634Z,66.78
2019-03-25T04:04:16.293Z,67.33
2019-03-25T04:06:43.945Z,67.22
2019-03-25T04:09:11.591Z,66.63
2019-03-25T04:11:39.272Z,66.22
2019-03-25T04:14:06.938Z,66.91
2019-03-25T04:16:34.579Z,66.03
2019-03-25T04:19:02.247Z,65.47
2019-03-25T04:21:29.887Z,65.70
2019-03-25T04:23:57.548Z,65.54
2019-03-25T04:26:28.805Z,65.68
2019-03-25T04:28:54.557Z,64.88
2019-03-25T04:31:22.202Z,65.35
2019-03-25T04:33:49.865Z,65.45
2019-03-25T04:36:17.654Z,65.57
2019-03-25T04:38:45.398Z,65.30
2019-03-25T04:41:13.420Z,65.57
2019-03-25T04:43:41.077Z,65.72
2019-03-25T04:46:08.724Z,65.52
2019-03-25T04:48:36.370Z,65.14
2019-03-25T04:51:04.127Z,65.64
2019-03-25T04:53:31.822Z,65.59
2019-03-25T04:55:59.551Z,65.34
2019-03-25T04:58:27.215Z,65.75
2019-03-25T05:00:54.870Z,65.72
2019-03-25T05:03:22.523Z,65.65
2019-03-25T05:05:50.255Z,66.04
2019-03-25T05:08:17.911Z,66.12
2019-03-25T05:10:45.760Z,66.53
2019-03-25T05:13:13.439Z,66.55
2019-03-25T05:15:41.287Z,66.30
2019-03-25T05:18:08.998Z,66.41
2019-03-25T05:20:36.671Z,66.88
2019-03-25T05:23:04.331Z,67.16
2019-03-25T05:25:31.988Z,67.02
2019-03-25T05:27:59.791Z,66.87
2019-03-25T05:30:27.551Z,67.27
2019-03-25T05:32:55.211Z,66.86
2019-03-25T05:35:22.864Z,67.12
2019-03-25T05:37:50.537Z,66.00
2019-03-25T05:40:18.205Z,65.96
2019-03-25T05:42:45.914Z,66.15
2019-03-25T05:45:13.576Z,65.51
2019-03-25T05:47:41.229Z,65.41
2019-03-25T05:50:09.322Z,65.17
2019-03-25T05:52:37.148Z,64.94
2019-03-25T05:55:04.853Z,64.59
2019-03-25T05:57:32.504Z,63.44
2019-03-25T06:00:00.347Z,62.93
2019-03-25T06:02:28.089Z,62.90
2019-03-25T06:04:55.739Z,63.62
2019-03-25T06:07:23.391Z,63.42
2019-03-25T06:09:51.078Z,62.91
2019-03-25T06:12:18.752Z,63.09
2019-03-25T06:14:46.411Z,63.27
2019-03-25T06:17:14.064Z,63.87
2019-03-25T06:19:41.715Z,63.13
2019-03-25T06:22:09.370Z,63.11
2019-03-25T06:24:37.050Z,61.93
2019-03-25T06:27:13.580Z,61.07
2019-03-25T06:29:34.209Z,60.29
2019-03-25T06:32:01.848Z,59.47
2019-03-25T06:34:29.592Z,58.31
2019-03-25T06:36:57.236Z,58.27
2019-03-25T06:39:25.310Z,58.50
2019-03-25T06:41:52.990Z,57.74
2019-03-25T06:44:20.644Z,58.42
2019-03-25T06:46:48.278Z,58.48
2019-03-25T06:49:15.998Z,58.15
2019-03-25T06:51:45.233Z,57.41
2019-03-25T06:54:13.150Z,57.54
2019-03-25T06:56:40.799Z,57.72
2019-03-25T06:59:08.439Z,57.49
2019-03-25T07:01:36.202Z,57.93
2019-03-25T07:04:03.829Z,58.06
2019-03-25T07:06:31.707Z,58.04
2019-03-25T07:08:59.512Z,58.12
2019-03-25T07:11:27.223Z,58.64
2019-03-25T07:13:54.863Z,58.99
2019-03-25T07:16:22.604Z,59.07
2019-03-25T07:18:50.336Z,59.20
2019-03-25T07:21:20.446Z,59.37
2019-03-25T07:23:47.548Z,58.04
2019-03-25T07:26:15.200Z,58.02
2019-03-25T07:28:42.848Z,57.86
2019-03-25T07:31:10.831Z,58.64
2019-03-25T07:33:38.480Z,57.37
2019-03-25T07:36:06.120Z,57.54
2019-03-25T07:38:33.802Z,57.88
2019-03-25T07:41:01.442Z,58.44
2019-03-25T07:43:29.394Z,59.72
2019-03-25T07:45:57.066Z,61.69
2019-03-25T07:48:24.710Z,64.54
2019-03-25T07:50:52.355Z,67.75
2019-03-25T07:53:19.991Z,68.61
2019-03-25T07:55:47.776Z,69.48
2019-03-25T07:58:15.503Z,69.16
2019-03-25T08:00:43.166Z,68.95
2019-03-25T08:03:10.805Z,68.16
2019-03-25T08:05:38.461Z,69.39
2019-03-25T08:08:07.412Z,68.39
2019-03-25T08:10:35.308Z,68.80
2019-03-25T08:13:02.985Z,68.13
2019-03-25T08:15:30.766Z,67.90
2019-03-25T08:17:58.664Z,68.09
2019-03-25T08:20:26.303Z,69.43
2019-03-25T08:22:53.952Z,69.63
2019-03-25T08:25:21.666Z,69.56
2019-03-25T08:27:59.470Z,70.25
2019-03-25T08:30:18.887Z,69.85
2019-03-25T08:32:46.632Z,70.68
2019-03-25T08:35:14.274Z,73.01
2019-03-25T08:37:41.915Z,75.36
2019-03-25T08:40:09.569Z,77.14
2019-03-25T08:42:37.204Z,78.15
2019-03-25T08:45:04.849Z,79.52
2019-03-25T08:47:32.496Z,80.39
2019-03-25T08:50:00.333Z,79.75
2019-03-25T08:52:28.063Z,80.73
2019-03-25T08:54:55.707Z,80.89
2019-03-25T08:57:23.391Z,80.66
2019-03-25T08:59:51.041Z,80.54
2019-03-25T09:02:18.691Z,81.51
2019-03-25T09:04:46.371Z,81.75
2019-03-25T09:07:14.025Z,81.71
2019-03-25T09:09:41.696Z,82.04
2019-03-25T09:12:09.414Z,82.12
2019-03-25T09:14:37.075Z,83.09
2019-03-25T09:17:04.938Z,82.03
2019-03-25T09:19:32.590Z,82.29
2019-03-25T09:27:17.279Z,80.65
2019-03-25T09:29:44.930Z,78.87
2019-03-25T09:32:12.588Z,78.29
2019-03-25T09:34:40.450Z,78.60
2019-03-25T09:37:08.174Z,78.61
2019-03-25T09:39:35.820Z,78.25
2019-03-25T09:42:03.484Z,77.85
2019-03-25T09:44:31.149Z,78.01
2019-03-25T09:46:58.795Z,76.14
2019-03-25T09:49:26.706Z,75.71
2019-03-25T09:51:54.368Z,75.14
2019-03-25T09:54:22.028Z,74.31
2019-03-25T09:56:49.706Z,75.09
2019-03-25T09:59:17.356Z,73.89
2019-03-25T10:01:45.003Z,73.06
2019-03-25T10:04:12.890Z,72.25
2019-03-25T10:06:40.544Z,71.93
2019-03-25T10:09:08.223Z,70.68
2019-03-25T10:11:36.204Z,72.63
2019-03-25T10:14:03.920Z,69.29
2019-03-25T10:16:31.652Z,69.76
2019-03-25T10:18:59.334Z,68.47
2019-03-25T10:21:26.987Z,67.48
2019-03-25T10:23:54.924Z,65.60
2019-03-25T10:26:22.875Z,67.16
2019-03-25T10:28:50.530Z,66.56
2019-03-25T10:31:18.221Z,66.04
2019-03-25T10:33:45.934Z,66.31
2019-03-25T10:36:13.592Z,68.18
2019-03-25T10:38:41.285Z,74.77
2019-03-25T10:41:08.932Z,78.74
2019-03-25T10:43:36.583Z,79.68
2019-03-25T10:46:04.248Z,80.45
2019-03-25T10:48:31.908Z,78.22
2019-03-25T10:50:59.587Z,78.08
2019-03-25T10:53:27.400Z,77.13
2019-03-25T10:55:55.131Z,76.82
2019-03-25T10:58:22.777Z,76.82
2019-03-25T11:00:50.549Z,78.74
2019-03-25T11:03:18.192Z,74.16
2019-03-25T11:05:45.903Z,72.55
2019-03-25T11:08:13.574Z,71.73
2019-03-25T11:10:41.301Z,71.59
2019-03-25T11:13:08.998Z,72.04
2019-03-25T11:15:36.652Z,72.16
2019-03-25T11:18:05.818Z,68.34
2019-03-25T11:20:33.824Z,67.87
2019-03-25T11:23:01.464Z,66.04
2019-03-25T11:25:29.119Z,66.41
2019-03-25T11:27:57.037Z,64.83
2019-03-25T11:30:24.744Z,62.72
2019-03-25T11:32:52.424Z,62.19
2019-03-25T11:35:20.151Z,62.15
2019-03-25T11:37:47.865Z,63.19
2019-03-25T11:40:15.531Z,62.20
2019-03-25T11:42:43.177Z,62.89
2019-03-25T11:45:10.900Z,62.51
2019-03-25T11:47:38.610Z,63.06
2019-03-25T11:50:06.313Z,62.52
2019-03-25T11:52:34.075Z,62.58
2019-03-25T11:55:01.710Z,62.22
2019-03-25T11:57:29.375Z,62.20
2019-03-25T11:59:57.023Z,61.69
2019-03-25T12:02:25.055Z,63.23
2019-03-25T12:04:52.773Z,63.95
2019-03-25T12:07:20.451Z,63.31
2019-03-25T12:09:48.183Z,62.81
2019-03-25T12:12:16.525Z,61.64
2019-03-25T12:14:44.270Z,62.25
2019-03-25T12:17:12.002Z,60.03
2019-03-25T12:19:39.655Z,59.54
2019-03-25T12:22:07.375Z,60.26
2019-03-25T12:24:35.091Z,58.63
2019-03-25T12:27:02.800Z,59.68
2019-03-25T12:29:30.775Z,56.73
2019-03-25T12:31:58.563Z,56.18
2019-03-25T12:34:26.327Z,58.25
2019-03-25T12:36:54.131Z,56.45
2019-03-25T12:39:21.784Z,54.49
2019-03-25T12:41:49.426Z,55.50
2019-03-25T12:44:17.068Z,56.25
2019-03-25T12:46:44.707Z,55.58
2019-03-25T12:49:12.351Z,56.88
2019-03-25T12:51:40.031Z,55.52
2019-03-25T12:54:07.750Z,55.20
2019-03-25T12:56:35.933Z,55.47
2019-03-25T12:59:03.593Z,54.72
2019-03-25T13:01:31.247Z,54.36
2019-03-25T13:03:58.895Z,54.41
2019-03-25T13:06:26.532Z,52.14
2019-03-25T13:08:54.195Z,51.63
2019-03-25T13:11:21.881Z,50.83
2019-03-25T13:13:49.532Z,51.25
2019-03-25T13:16:17.167Z,52.17
2019-03-25T13:18:44.821Z,50.45
2019-03-25T13:21:12.481Z,51.94
2019-03-25T13:23:40.113Z,50.83
2019-03-25T13:26:08.051Z,50.15
2019-03-25T13:28:35.915Z,49.07
2019-03-25T13:31:03.628Z,48.87
2019-03-25T13:33:31.580Z,49.71
2019-03-25T13:35:59.351Z,49.33
2019-03-25T13:38:26.996Z,48.67
2019-03-25T13:40:54.690Z,49.28
2019-03-25T13:43:22.403Z,50.34
2019-03-25T13:45:50.081Z,49.88
2019-03-25T13:48:17.827Z,49.94
2019-03-25T13:50:45.495Z,51.27
2019-03-25T13:53:13.260Z,50.44
2019-03-25T13:55:40.909Z,52.86
2019-03-25T13:58:08.553Z,52.63
2019-03-25T14:00:36.195Z,53.51
2019-03-25T14:03:03.834Z,53.42
2019-03-25T14:05:31.489Z,53.93
2019-03-25T14:07:59.148Z,53.01
2019-03-25T14:10:26.861Z,52.59
2019-03-25T14:12:54.581Z,52.86
2019-03-25T14:15:22.275Z,53.92
2019-03-25T14:17:49.931Z,56.19
2019-03-25T14:20:17.571Z,57.33
2019-03-25T14:22:45.231Z,59.02
2019-03-25T14:25:12.889Z,60.49
2019-03-25T14:27:40.534Z,60.01
2019-03-25T14:30:14.553Z,63.40
2019-03-25T14:32:37.662Z,63.44
2019-03-25T14:35:05.309Z,62.86
2019-03-25T14:37:33.258Z,63.71
2019-03-25T14:40:01.127Z,62.81
2019-03-25T14:42:28.828Z,62.96
2019-03-25T14:44:56.484Z,63.56
2019-03-25T14:47:24.151Z,64.31
2019-03-25T14:49:51.821Z,64.27
2019-03-25T14:52:19.642Z,64.76
2019-03-25T14:54:47.331Z,64.40
2019-03-25T14:57:15.949Z,64.02
2019-03-25T14:59:43.591Z,66.66
2019-03-25T15:02:11.225Z,65.89
2019-03-25T15:04:38.880Z,67.98
2019-03-25T15:07:06.606Z,74.17
2019-03-25T15:09:34.290Z,77.02
2019-03-25T15:12:02.184Z,80.29
2019-03-25T15:14:29.827Z,81.02
2019-03-25T15:16:57.475Z,81.08
2019-03-25T15:19:25.336Z,81.99
2019-03-25T15:21:53.065Z,82.45
2019-03-25T15:24:20.740Z,82.95
2019-03-25T15:26:48.379Z,82.48
2019-03-25T15:29:16.032Z,82.37
2019-03-25T15:31:43.679Z,82.51
2019-03-25T15:34:11.331Z,81.58
2019-03-25T15:36:39.098Z,82.76
2019-03-25T15:39:06.900Z,82.73
2019-03-25T15:41:34.588Z,81.95
2019-03-25T15:44:02.318Z,83.05
2019-03-25T15:46:29.988Z,82.99
2019-03-25T15:48:57.636Z,82.99
2019-03-25T15:51:25.284Z,83.20
2019-03-25T15:53:52.934Z,82.11
2019-03-25T15:56:20.620Z,81.90
2019-03-25T15:58:48.285Z,82.00
2019-03-25T16:01:15.931Z,83.29
2019-03-25T16:03:43.585Z,83.70
2019-03-25T16:06:11.230Z,83.15
2019-03-25T16:08:38.879Z,81.99
2019-03-25T16:11:06.534Z,82.23
2019-03-25T16:13:34.295Z,83.05
2019-03-25T16:16:02.051Z,82.83
2019-03-25T16:18:29.712Z,82.80
2019-03-25T16:20:57.362Z,81.81
2019-03-25T16:23:25.009Z,79.35
2019-03-25T16:25:52.661Z,79.88
2019-03-25T16:28:20.360Z,78.40
2019-03-25T16:30:58.215Z,78.70
2019-03-25T16:33:17.483Z,77.94
2019-03-25T16:35:45.148Z,77.13
2019-03-25T16:38:12.813Z,78.08
2019-03-25T16:40:40.522Z,76.96
2019-03-25T16:43:08.172Z,78.18
2019-03-25T16:45:35.835Z,78.50
2019-03-25T16:48:03.479Z,76.42
2019-03-25T16:50:31.133Z,77.49
2019-03-25T16:52:58.783Z,77.05
2019-03-25T16:55:26.445Z,77.66
2019-03-25T16:57:54.090Z,78.32
2019-03-25T17:00:27.215Z,77.60
2019-03-25T17:02:51.560Z,80.48
2019-03-25T17:05:19.257Z,82.28
2019-03-25T17:07:46.900Z,83.78
2019-03-25T17:10:14.555Z,84.71
2019-03-25T17:12:42.211Z,84.74
2019-03-25T17:15:10.206Z,84.14
2019-03-25T17:17:37.966Z,84.38
2019-03-25T17:20:05.758Z,83.42
2019-03-25T17:22:33.419Z,82.80
2019-03-25T17:25:01.518Z,82.30
2019-03-25T17:27:29.170Z,83.95
2019-03-25T17:29:56.819Z,84.79
2019-03-25T17:32:24.464Z,84.77
2019-03-25T17:34:52.124Z,85.60
2019-03-25T17:37:19.853Z,86.22
2019-03-25T17:39:47.508Z,86.57
2019-03-25T17:42:15.258Z,86.26
2019-03-25T17:44:42.886Z,86.69
2019-03-25T17:47:10.531Z,87.58
2019-03-25T17:49:38.259Z,87.47
2019-03-25T17:52:05.904Z,87.26
2019-03-25T17:54:33.661Z,87.59
2019-03-25T17:57:01.320Z,86.93
2019-03-25T17:59:29.068Z,87.62
2019-03-25T18:01:56.719Z,87.51
2019-03-25T18:04:24.381Z,87.03
2019-03-25T18:06:52.123Z,86.93
2019-03-25T18:09:19.772Z,86.04
2019-03-25T18:11:47.422Z,85.55
2019-03-25T18:14:15.074Z,84.99
2019-03-25T18:16:42.706Z,84.25
2019-03-25T18:19:10.356Z,85.58
2019-03-25T18:21:38.033Z,85.85
2019-03-25T18:24:05.691Z,85.56
2019-03-25T18:26:33.372Z,85.16
2019-03-25T18:29:01.010Z,85.46
2019-03-25T18:31:28.675Z,85.69
2019-03-25T18:33:56.323Z,86.48
2019-03-25T18:36:23.972Z,86.12
2019-03-25T18:38:51.623Z,86.65
2019-03-25T18:41:19.274Z,87.18
2019-03-25T18:43:47.220Z,86.54
2019-03-25T18:46:15.248Z,86.79
2019-03-25T18:48:42.978Z,86.37
2019-03-25T18:51:10.636Z,85.79
2019-03-25T18:53:38.299Z,85.75
2019-03-25T18:56:06.015Z,85.49
2019-03-25T18:58:33.671Z,85.04
2019-03-25T19:01:01.424Z,85.44
2019-03-25T19:03:29.173Z,86.10
2019-03-25T19:05:56.936Z,86.13
2019-03-25T19:08:24.575Z,86.18
2019-03-25T19:10:52.540Z,86.75
2019-03-25T19:13:20.308Z,86.53
2019-03-25T19:15:47.970Z,86.41
2019-03-25T19:18:15.850Z,86.86
2019-03-25T19:20:43.575Z,87.31
2019-03-25T19:23:11.235Z,87.14
2019-03-25T19:25:39.167Z,86.74
2019-03-25T19:28:06.810Z,86.72
2019-03-25T19:30:34.472Z,86.68
2019-03-25T19:33:02.557Z,86.92
2019-03-25T19:35:30.391Z,86.37
2019-03-25T19:37:58.298Z,86.64
2019-03-25T19:40:26.057Z,86.49
2019-03-25T19:42:53.707Z,86.70
2019-03-25T19:45:21.366Z,86.45
2019-03-25T19:47:49.013Z,86.39
2019-03-25T19:50:16.668Z,86.66
2019-03-25T19:52:44.403Z,86.95
2019-03-25T19:55:12.073Z,87.42
2019-03-25T19:57:39.732Z,86.90
2019-03-25T20:00:07.650Z,86.25
2019-03-25T20:02:35.296Z,86.14
2019-03-25T20:05:02.983Z,86.12
2019-03-25T20:07:30.709Z,85.84
2019-03-25T20:09:58.372Z,86.40
2019-03-25T20:12:26.086Z,86.32
2019-03-25T20:14:53.867Z,85.61
2019-03-25T20:17:21.599Z,85.13
2019-03-25T20:19:49.317Z,85.12
2019-03-25T20:22:17.056Z,85.62
2019-03-25T20:24:44.888Z,85.65
2019-03-25T20:27:12.550Z,85.52
2019-03-25T20:29:40.192Z,85.06
2019-03-25T20:32:07.846Z,85.46
2019-03-25T20:34:37.714Z,85.39
2019-03-25T20:37:04.883Z,85.76
2019-03-25T20:39:32.609Z,85.88
2019-03-25T20:42:00.317Z,85.80
2019-03-25T20:44:28.081Z,86.00
2019-03-25T20:46:55.796Z,85.85
2019-03-25T20:49:23.556Z,86.03
2019-03-25T20:51:51.324Z,86.24
2019-03-25T20:54:19.040Z,85.76
2019-03-25T20:56:46.757Z,85.07
2019-03-25T20:59:14.406Z,86.16
2019-03-25T21:01:42.257Z,85.93
2019-03-25T21:04:09.963Z,85.65
2019-03-25T21:06:37.643Z,84.51
2019-03-25T21:09:05.400Z,84.07
2019-03-25T21:11:33.063Z,84.48
2019-03-25T21:14:00.734Z,84.35
2019-03-25T21:16:28.469Z,84.55
2019-03-25T21:18:56.244Z,84.53
2019-03-25T21:21:23.894Z,84.40
2019-03-25T21:23:51.558Z,84.37
2019-03-25T21:26:19.205Z,84.13
2019-03-25T21:28:46.882Z,84.49
2019-03-25T21:31:14.693Z,84.76
2019-03-25T21:33:42.367Z,85.18
2019-03-25T21:36:10.099Z,85.07
2019-03-25T21:38:37.913Z,83.74
2019-03-25T21:41:05.701Z,84.48
2019-03-25T21:43:33.427Z,83.96
2019-03-25T21:46:01.122Z,84.09
2019-03-25T21:48:28.819Z,83.76
2019-03-25T21:50:56.634Z,83.83
2019-03-25T21:53:24.315Z,83.31
2019-03-25T21:55:52.074Z,83.79
2019-03-25T21:58:19.807Z,84.44
2019-03-25T22:00:47.465Z,82.87
2019-03-25T22:03:15.176Z,82.76
2019-03-25T22:05:42.845Z,82.73
2019-03-25T22:08:10.580Z,82.55
2019-03-25T22:10:38.242Z,83.36
2019-03-25T22:13:05.979Z,83.67
2019-03-25T22:15:33.627Z,83.75
2019-03-25T22:18:01.280Z,82.43
2019-03-25T22:20:28.927Z,82.42
2019-03-25T22:22:56.592Z,82.07
2019-03-25T22:25:24.254Z,82.09
2019-03-25T22:27:51.931Z,82.37
2019-03-25T22:30:19.582Z,82.97
2019-03-25T22:32:47.235Z,82.25
2019-03-25T22:35:14.891Z,82.29
2019-03-25T22:37:42.598Z,82.15
2019-03-25T22:40:10.254Z,82.08
2019-03-25T22:42:37.923Z,81.65
2019-03-25T22:45:05.578Z,81.57
2019-03-25T22:47:33.233Z,81.62
2019-03-25T22:50:00.891Z,81.76
2019-03-25T22:52:28.551Z,82.16
2019-03-25T22:54:56.199Z,82.31
2019-03-25T22:57:23.893Z,82.65
2019-03-25T22:59:51.548Z,83.25
2019-03-25T23:02:19.199Z,83.34
2019-03-25T23:04:46.848Z,83.34
2019-03-25T23:07:14.563Z,83.08
2019-03-25T23:09:42.243Z,83.42
2019-03-25T23:12:09.892Z,83.94
2019-03-25T23:14:37.538Z,83.68
2019-03-25T23:17:05.186Z,84.00
2019-03-25T23:19:32.923Z,84.32
2019-03-25T23:22:00.610Z,84.26
2019-03-25T23:24:28.348Z,84.48
2019-03-25T23:26:55.990Z,84.44
2019-03-25T23:29:23.651Z,84.35
2019-03-25T23:31:51.376Z,84.58
2019-03-25T23:34:19.027Z,85.12
2019-03-25T23:36:46.666Z,85.37
2019-03-25T23:39:14.338Z,85.09
2019-03-25T23:41:42.031Z,85.28
2019-03-25T23:44:09.683Z,85.03
2019-03-25T23:46:37.332Z,84.77
2019-03-25T23:49:04.986Z,85.17
2019-03-25T23:51:32.765Z,85.25
2019-03-25T23:54:05.735Z,84.88
2019-03-25T23:56:33.386Z,85.47
2019-03-25T23:59:01.039Z,85.30
